Time;durP1;ratioP1;P1;durP2;ratioP2;P2;SDS_P1;SDS_P2;PMS_P1;PMS_P2;Temp;Humidity;BMP_temperature;BMP_pressure;BME280_temperature;BME280_humidity;BME280_pressure;Samples;Min_cycle;Max_cycle;Signal;HPM_P1;HPM_P2
2021/11/24 00:02:16;;;;;;;16.25;9.23;;;3.60;75.30;;;;;;5035036;28;20108;-35
2021/11/24 00:04:42;;;;;;;18.98;8.60;;;3.50;75.20;;;;;;5035673;28;20029;-45
2021/11/24 00:07:07;;;;;;;35.03;13.38;;;3.50;75.00;;;;;;5035285;28;20127;-38
2021/11/24 00:09:33;;;;;;;27.67;12.95;;;3.50;74.90;;;;;;5035862;28;20049;-44
2021/11/24 00:11:59;;;;;;;27.83;12.00;;;3.50;74.90;;;;;;5034844;28;20044;-36
2021/11/24 00:14:25;;;;;;;22.02;10.60;;;3.50;75.00;;;;;;5035590;28;20038;-45
2021/11/24 00:16:50;;;;;;;22.73;11.10;;;3.50;75.10;;;;;;5034974;28;20145;-40
2021/11/24 00:19:16;;;;;;;18.73;9.20;;;3.50;75.20;;;;;;5035781;28;20080;-35
2021/11/24 00:21:42;;;;;;;15.85;8.63;;;3.40;75.10;;;;;;5035405;28;20394;-45
2021/11/24 00:24:07;;;;;;;15.82;7.88;;;3.40;75.00;;;;;;5035396;28;20092;-35
2021/11/24 00:26:33;;;;;;;14.07;7.55;;;3.40;74.90;;;;;;5035258;28;20036;-38
2021/11/24 00:28:59;;;;;;;12.32;6.82;;;3.50;74.80;;;;;;5039059;28;20060;-38
2021/11/24 00:31:27;;;;;;;47.97;16.27;;;3.50;74.80;;;;;;5038465;28;20029;-46
2021/11/24 00:33:53;;;;;;;25.52;10.35;;;3.40;74.70;;;;;;5039039;28;20303;-45
2021/11/24 00:36:19;;;;;;;23.05;8.63;;;3.40;75.30;;;;;;5038970;28;20098;-35
2021/11/24 00:38:45;;;;;;;11.57;7.35;;;3.40;74.70;;;;;;5038486;28;20061;-35
2021/11/24 00:41:10;;;;;;;11.65;7.15;;;3.40;74.60;;;;;;5038841;28;20034;-45
2021/11/24 00:43:36;;;;;;;13.02;7.80;;;3.30;74.40;;;;;;5038674;28;20064;-34
2021/11/24 00:46:02;;;;;;;14.05;8.57;;;3.30;74.40;;;;;;5038917;28;20037;-45
2021/11/24 00:48:28;;;;;;;22.95;10.02;;;3.30;74.60;;;;;;5038656;28;20033;-47
2021/11/24 00:50:54;;;;;;;25.52;12.00;;;3.30;74.70;;;;;;5038869;28;20280;-46
2021/11/24 00:53:20;;;;;;;26.52;12.75;;;3.30;74.90;;;;;;5038548;28;20055;-46
2021/11/24 00:55:45;;;;;;;20.45;10.00;;;3.30;75.00;;;;;;5038196;28;20045;-44
2021/11/24 00:58:11;;;;;;;17.25;8.68;;;3.30;75.10;;;;;;5038095;28;20038;-46
2021/11/24 01:00:37;;;;;;;36.90;15.05;;;3.30;75.10;;;;;;5038663;28;20029;-46
2021/11/24 01:03:03;;;;;;;39.67;16.17;;;3.40;75.10;;;;;;5038047;28;20025;-45
2021/11/24 01:05:30;;;;;;;41.90;16.88;;;3.30;75.00;;;;;;5038655;28;20056;-45
2021/11/24 01:07:56;;;;;;;29.13;12.68;;;3.30;75.00;;;;;;5037929;28;20040;-34
2021/11/24 01:10:21;;;;;;;16.90;8.73;;;3.30;75.60;;;;;;5038419;28;20037;-34
2021/11/24 01:12:47;;;;;;;25.95;10.48;;;3.40;75.10;;;;;;5037991;28;20207;-36
2021/11/24 01:15:15;;;;;;;21.05;11.82;;;3.30;75.00;;;;;;5038328;28;20120;-47
2021/11/24 01:17:40;;;;;;;19.95;11.93;;;3.40;75.00;;;;;;5037928;28;20026;-47
2021/11/24 01:20:07;;;;;;;18.75;11.13;;;3.40;74.90;;;;;;5038363;28;20091;-47
2021/11/24 01:22:33;;;;;;;16.83;9.55;;;3.40;74.90;;;;;;5038064;28;20148;-36
2021/11/24 01:24:59;;;;;;;18.58;9.48;;;3.40;75.00;;;;;;5038265;28;20053;-36
2021/11/24 01:27:25;;;;;;;14.50;7.45;;;3.40;74.90;;;;;;5037704;28;20034;-34
2021/11/24 01:29:51;;;;;;;17.90;9.32;;;3.40;74.80;;;;;;5038011;28;20091;-35
2021/11/24 01:32:17;;;;;;;25.10;10.93;;;3.40;74.90;;;;;;5037524;28;20029;-33
2021/11/24 01:34:42;;;;;;;16.65;9.27;;;3.40;74.90;;;;;;5037952;28;20033;-36
2021/11/24 01:37:08;;;;;;;26.23;12.02;;;3.40;74.90;;;;;;5037301;28;20033;-45
2021/11/24 01:39:34;;;;;;;23.95;10.57;;;3.40;74.90;;;;;;5036984;28;20036;-45
2021/11/24 01:41:59;;;;;;;15.95;8.18;;;3.40;75.00;;;;;;5037543;28;20022;-45
2021/11/24 01:44:27;;;;;;;15.93;7.90;;;3.40;75.00;;;;;;5037774;28;20056;-46
2021/11/24 01:46:56;;;;;;;17.73;8.73;;;3.40;75.00;;;;;;5037354;28;20358;-47
2021/11/24 01:49:23;;;;;;;15.30;7.80;;;3.40;75.10;;;;;;5037429;28;20108;-46
2021/11/24 01:51:50;;;;;;;13.23;7.18;;;3.40;75.00;;;;;;5036778;28;20026;-36
2021/11/24 01:54:16;;;;;;;18.15;8.77;;;3.40;75.50;;;;;;5037112;28;20141;-47
2021/11/24 01:56:43;;;;;;;26.80;11.95;;;3.40;75.40;;;;;;5036945;28;20022;-47
2021/11/24 01:59:11;;;;;;;22.27;11.77;;;3.50;74.90;;;;;;5037493;28;20033;-33
2021/11/24 02:01:42;;;;;;;30.85;14.55;;;3.50;74.90;;;;;;5036923;28;20301;-45
2021/11/24 02:04:08;;;;;;;;;;;3.50;74.80;;;;;;5037850;28;20029;-44
2021/11/24 02:06:33;;;;;;;16.85;9.85;;;3.50;74.50;;;;;;5037183;28;19940;-39
2021/11/24 02:08:59;;;;;;;15.60;8.13;;;3.40;74.60;;;;;;5037107;28;20369;-32
2021/11/24 02:11:26;;;;;;;18.38;8.63;;;3.40;74.70;;;;;;5036524;28;20389;-39
2021/11/24 02:13:52;;;;;;;21.38;9.68;;;3.40;74.70;;;;;;5037300;28;20417;-33
2021/11/24 02:16:18;;;;;;;15.60;8.57;;;3.40;74.80;;;;;;5036762;28;20075;-39
2021/11/24 02:18:43;;;;;;;16.95;8.75;;;3.40;74.90;;;;;;5036797;28;20057;-32
2021/11/24 02:21:10;;;;;;;16.95;9.00;;;3.40;75.10;;;;;;5036827;28;20018;-39
2021/11/24 02:23:36;;;;;;;21.75;13.77;;;3.30;75.10;;;;;;5036769;28;20033;-32
2021/11/24 02:26:02;;;;;;;20.98;13.75;;;3.30;75.30;;;;;;5037091;28;20030;-32
2021/11/24 02:28:29;;;;;;;24.35;13.90;;;3.30;75.50;;;;;;5036610;28;20037;-32
2021/11/24 02:30:55;;;;;;;15.07;9.32;;;3.30;75.60;;;;;;5036540;28;20033;-39
2021/11/24 02:33:21;;;;;;;20.45;10.90;;;3.30;75.70;;;;;;5036674;28;20516;-39
2021/11/24 02:35:46;;;;;;;21.27;13.43;;;3.30;75.50;;;;;;5037031;28;20140;-39
2021/11/24 02:38:19;;;;;;;22.65;12.40;;;3.30;75.50;;;;;;5036274;28;20087;-32
2021/11/24 02:40:44;;;;;;;20.25;11.90;;;3.30;75.60;;;;;;5036917;28;20033;-32
2021/11/24 02:43:10;;;;;;;21.95;12.95;;;3.30;75.70;;;;;;5036194;28;20317;-32
2021/11/24 02:45:36;;;;;;;25.63;15.85;;;3.30;75.80;;;;;;5036985;28;20039;-39
2021/11/24 02:48:04;;;;;;;37.35;22.67;;;3.30;76.00;;;;;;5035816;28;20028;-39
2021/11/24 02:50:30;;;;;;;30.50;19.02;;;3.30;75.90;;;;;;5035936;28;20304;-39
2021/11/24 02:52:56;;;;;;;28.27;18.92;;;3.30;76.00;;;;;;5036193;28;20083;-32
2021/11/24 02:55:22;;;;;;;31.58;16.17;;;3.40;75.90;;;;;;5035996;28;20434;-32
2021/11/24 02:57:50;;;;;;;23.92;14.77;;;3.30;75.80;;;;;;5035851;28;20030;-37
2021/11/24 03:00:20;;;;;;;24.75;15.68;;;3.30;75.80;;;;;;5036562;28;20084;-35
2021/11/24 03:02:47;;;;;;;21.85;14.45;;;3.40;75.90;;;;;;5035898;28;20044;-37
2021/11/24 03:05:15;;;;;;;23.33;14.32;;;3.40;75.90;;;;;;5036545;28;20361;-46
2021/11/24 03:07:41;;;;;;;25.40;16.60;;;3.40;75.80;;;;;;5035887;28;20053;-35
2021/11/24 03:10:07;;;;;;;21.80;14.25;;;3.40;75.90;;;;;;5036334;28;20056;-36
2021/11/24 03:12:34;;;;;;;28.85;15.43;;;3.40;76.10;;;;;;5035668;28;20069;-45
2021/11/24 03:15:00;;;;;;;35.47;14.75;;;3.40;76.20;;;;;;5036206;28;20118;-37
2021/11/24 03:17:26;;;;;;;67.85;24.15;;;3.40;76.00;;;;;;5035989;28;20072;-45
2021/11/24 03:19:52;;;;;;;54.88;21.15;;;3.40;75.80;;;;;;5036306;28;20029;-34
2021/11/24 03:22:22;;;;;;;23.08;12.35;;;3.40;75.70;;;;;;5035819;28;20052;-45
2021/11/24 03:24:55;;;;;;;22.70;11.68;;;3.50;75.70;;;;;;5036336;28;20065;-39
2021/11/24 03:27:27;;;;;;;22.95;11.68;;;3.50;75.70;;;;;;5035903;28;20334;-45
2021/11/24 03:29:54;;;;;;;16.30;10.10;;;3.50;75.60;;;;;;5035979;28;20040;-45
2021/11/24 03:32:20;;;;;;;17.70;10.40;;;3.50;75.60;;;;;;5035445;28;20131;-35
2021/11/24 03:34:45;;;;;;;20.33;12.02;;;3.50;75.60;;;;;;5036134;28;20056;-45
2021/11/24 03:37:12;;;;;;;22.70;13.27;;;3.50;75.50;;;;;;5035541;28;20048;-34
2021/11/24 03:39:37;;;;;;;29.55;15.35;;;3.50;75.30;;;;;;5035917;28;20029;-35
2021/11/24 03:42:03;;;;;;;29.17;14.63;;;3.50;75.20;;;;;;5035366;28;20066;-34
2021/11/24 03:44:29;;;;;;;30.23;14.32;;;3.50;75.20;;;;;;5035847;28;20058;-46
2021/11/24 03:46:55;;;;;;;24.73;14.43;;;3.50;75.30;;;;;;5035633;28;20069;-36
2021/11/24 03:49:21;;;;;;;24.65;14.07;;;3.50;75.30;;;;;;5035994;28;20026;-38
2021/11/24 03:51:48;;;;;;;27.02;14.50;;;3.40;75.10;;;;;;5035507;28;20368;-45
2021/11/24 03:54:14;;;;;;;26.75;14.63;;;3.50;75.20;;;;;;5035348;28;20085;-34
2021/11/24 03:56:39;;;;;;;24.33;13.88;;;3.40;75.10;;;;;;5035699;28;20052;-45
2021/11/24 03:59:05;;;;;;;23.25;14.35;;;3.40;75.10;;;;;;5035463;28;20044;-35
2021/11/24 04:01:31;;;;;;;26.83;15.32;;;3.40;75.20;;;;;;5035311;28;20079;-41
2021/11/24 04:03:57;;;;;;;27.92;14.45;;;3.40;75.30;;;;;;5038324;28;20295;-34
2021/11/24 04:06:25;;;;;;;27.35;13.88;;;3.30;75.40;;;;;;5039339;28;20022;-45
2021/11/24 04:08:51;;;;;;;25.33;14.00;;;3.30;75.50;;;;;;5039537;28;20056;-44
2021/11/24 04:11:17;;;;;;;29.90;15.10;;;3.30;75.50;;;;;;5039201;28;20747;-35
2021/11/24 04:13:43;;;;;;;24.50;13.95;;;3.30;75.60;;;;;;5039443;28;20025;-36
2021/11/24 04:16:09;;;;;;;33.47;17.05;;;3.30;75.70;;;;;;5038973;28;20033;-34
2021/11/24 04:18:35;;;;;;;28.23;14.98;;;3.30;75.80;;;;;;5039165;28;20433;-47
2021/11/24 04:21:01;;;;;;;28.30;14.75;;;3.20;75.90;;;;;;5039503;28;20060;-35
2021/11/24 04:23:26;;;;;;;21.65;12.27;;;3.30;75.90;;;;;;5039093;28;20025;-34
2021/11/24 04:25:53;;;;;;;31.38;15.73;;;3.30;75.90;;;;;;5039378;28;20033;-34
2021/11/24 04:28:19;;;;;;;26.88;13.77;;;3.30;75.80;;;;;;5038684;28;20044;-45
2021/11/24 04:30:45;;;;;;;23.05;13.77;;;3.30;75.80;;;;;;5038730;28;20037;-35
2021/11/24 04:33:10;;;;;;;30.75;16.90;;;3.30;75.90;;;;;;5038572;28;20091;-35
2021/11/24 04:35:38;;;;;;;27.88;16.48;;;3.30;75.90;;;;;;5039214;28;20033;-35
2021/11/24 04:38:04;;;;;;;31.00;18.02;;;3.30;75.90;;;;;;5038699;28;20429;-36
2021/11/24 04:40:29;;;;;;;53.92;20.33;;;3.30;75.90;;;;;;5039210;28;20057;-37
2021/11/24 04:42:56;;;;;;;35.85;19.40;;;3.30;75.70;;;;;;5038377;28;20022;-35
2021/11/24 04:45:22;;;;;;;33.95;18.67;;;3.30;75.70;;;;;;5039007;28;20034;-36
2021/11/24 04:47:48;;;;;;;33.92;18.60;;;3.30;75.80;;;;;;5038556;28;20422;-37
2021/11/24 04:50:15;;;;;;;35.47;18.25;;;3.30;75.90;;;;;;5038896;28;20103;-36
2021/11/24 04:52:41;;;;;;;34.70;17.05;;;3.30;76.10;;;;;;5037128;28;20025;-45
2021/11/24 04:55:07;;;;;;;30.63;16.77;;;3.30;76.20;;;;;;5037028;28;20057;-45
2021/11/24 04:57:33;;;;;;;36.40;16.98;;;3.30;76.20;;;;;;5038141;28;20032;-37
2021/11/24 04:59:59;;;;;;;33.30;15.75;;;3.30;76.20;;;;;;5038650;28;20405;-47
2021/11/24 05:02:25;;;;;;;35.78;17.38;;;3.30;76.30;;;;;;5038052;28;20092;-46
2021/11/24 05:04:50;;;;;;;32.90;16.00;;;3.30;76.40;;;;;;5038198;28;20452;-37
2021/11/24 05:07:16;;;;;;;28.33;14.70;;;3.30;76.20;;;;;;5037971;28;20236;-40
2021/11/24 05:09:42;;;;;;;33.30;19.20;;;3.40;76.10;;;;;;5038092;28;20059;-47
2021/11/24 05:12:08;;;;;;;30.52;17.02;;;3.40;76.10;;;;;;5037505;28;20330;-45
2021/11/24 05:14:35;;;;;;;38.45;18.05;;;3.40;76.00;;;;;;5037415;28;20168;-34
2021/11/24 05:17:04;;;;;;;41.83;21.80;;;3.40;76.00;;;;;;5037497;28;20113;-34
2021/11/24 05:19:32;;;;;;;37.67;17.60;;;3.40;75.80;;;;;;5038102;28;20037;-46
2021/11/24 05:21:59;;;;;;;32.78;16.88;;;3.40;75.80;;;;;;5037675;28;20030;-35
2021/11/24 05:24:25;;;;;;;32.97;17.90;;;3.40;75.70;;;;;;5037957;28;20433;-44
2021/11/24 05:26:51;;;;;;;47.03;20.27;;;3.40;75.80;;;;;;5037842;28;20021;-45
2021/11/24 05:29:17;;;;;;;51.90;22.00;;;3.50;75.60;;;;;;5037935;28;20433;-34
2021/11/24 05:31:43;;;;;;;48.70;20.95;;;3.40;75.60;;;;;;5037494;28;20433;-36
2021/11/24 05:34:08;;;;;;;48.38;21.58;;;3.50;75.50;;;;;;5037641;28;20061;-44
2021/11/24 05:36:35;;;;;;;50.03;22.95;;;3.40;75.50;;;;;;5037386;28;20330;-35
2021/11/24 05:39:07;;;;;;;49.72;21.25;;;3.50;75.60;;;;;;5037573;28;20120;-36
2021/11/24 05:41:37;;;;;;;49.80;20.08;;;3.40;75.50;;;;;;5037253;28;20030;-36
2021/11/24 05:44:25;;;;;;;40.22;18.42;;;3.40;75.50;;;;;;5037311;28;20036;-46
2021/11/24 05:46:58;;;;;;;37.88;17.30;;;3.40;75.60;;;;;;5037223;28;20437;-48
2021/11/24 05:49:25;;;;;;;38.83;18.52;;;3.40;75.60;;;;;;5037550;28;20079;-39
2021/11/24 05:51:52;;;;;;;35.78;18.48;;;3.50;75.50;;;;;;5036798;28;20022;-39
2021/11/24 05:54:18;;;;;;;35.00;18.45;;;3.40;75.30;;;;;;5036942;28;20046;-39
2021/11/24 05:56:45;;;;;;;37.03;18.00;;;3.40;75.10;;;;;;5037117;28;20024;-39
2021/11/24 05:59:14;;;;;;;40.95;20.05;;;3.40;74.90;;;;;;5037180;28;20037;-34
2021/11/24 06:01:40;;;;;;;43.92;19.20;;;3.30;74.90;;;;;;5036691;28;20026;-34
2021/11/24 06:04:06;;;;;;;36.72;17.90;;;3.30;75.20;;;;;;5037013;28;20034;-46
2021/11/24 06:06:33;;;;;;;34.40;17.27;;;3.20;75.20;;;;;;5036487;28;20018;-36
2021/11/24 06:08:59;;;;;;;29.88;15.98;;;3.20;75.40;;;;;;5037090;28;20030;-47
2021/11/24 06:11:25;;;;;;;38.42;17.35;;;3.20;75.40;;;;;;5036612;28;20037;-46
2021/11/24 06:13:51;;;;;;;42.45;19.13;;;3.10;75.40;;;;;;5036739;28;20057;-37
2021/11/24 06:16:17;;;;;;;37.90;19.05;;;3.10;75.60;;;;;;5036596;28;20405;-46
2021/11/24 06:18:43;;;;;;;59.33;21.63;;;3.10;75.60;;;;;;5036470;28;20120;-46
2021/11/24 06:21:09;;;;;;;45.70;21.13;;;3.10;75.50;;;;;;5036492;28;20036;-46
2021/11/24 06:23:39;;;;;;;34.88;16.63;;;3.10;75.50;;;;;;5036954;28;20022;-45
2021/11/24 06:26:07;;;;;;;35.20;17.92;;;3.10;75.30;;;;;;5036793;28;20326;-47
2021/11/24 06:28:33;;;;;;;30.73;16.80;;;3.10;75.30;;;;;;5036024;28;20040;-46
2021/11/24 06:30:59;;;;;;;43.13;18.98;;;3.00;75.40;;;;;;5036709;28;20137;-36
2021/11/24 06:33:26;;;;;;;48.70;21.85;;;3.00;75.60;;;;;;5036189;28;20033;-35
2021/11/24 06:35:52;;;;;;;34.35;18.33;;;3.00;75.60;;;;;;5036571;28;20103;-47
2021/11/24 06:38:20;;;;;;;33.70;18.05;;;3.00;75.70;;;;;;5035891;28;20044;-37
2021/11/24 06:40:45;;;;;;;41.17;19.35;;;3.00;75.60;;;;;;5036539;28;20033;-45
2021/11/24 06:43:11;;;;;;;32.35;16.35;;;3.00;75.70;;;;;;5035896;28;20091;-36
2021/11/24 06:45:37;;;;;;;41.00;20.90;;;3.00;75.80;;;;;;5036467;28;20410;-45
2021/11/24 06:48:03;;;;;;;35.53;17.85;;;3.00;75.80;;;;;;5035652;28;20112;-36
2021/11/24 06:50:28;;;;;;;28.08;15.75;;;3.00;75.80;;;;;;5036654;28;20040;-37
2021/11/24 06:52:54;;;;;;;31.77;17.60;;;3.00;75.90;;;;;;5035770;28;20502;-45
2021/11/24 06:55:20;;;;;;;26.88;16.23;;;3.00;76.00;;;;;;5035868;28;20144;-46
2021/11/24 06:57:46;;;;;;;27.75;15.63;;;3.00;76.00;;;;;;5035738;28;20030;-38
2021/11/24 07:00:12;;;;;;;32.50;16.00;;;3.10;76.00;;;;;;5036163;28;20088;-46
2021/11/24 07:02:38;;;;;;;33.47;16.85;;;3.10;75.90;;;;;;5035541;28;20076;-35
2021/11/24 07:05:04;;;;;;;42.53;19.17;;;3.10;75.80;;;;;;5034962;28;20044;-42
2021/11/24 07:07:30;;;;;;;53.20;21.52;;;3.10;75.80;;;;;;5035723;28;20033;-35
2021/11/24 07:09:56;;;;;;;40.00;18.75;;;3.10;75.60;;;;;;5035869;28;20122;-46
2021/11/24 07:12:25;;;;;;;36.00;17.02;;;3.10;75.60;;;;;;5035465;28;20060;-44
2021/11/24 07:14:52;;;;;;;30.30;16.75;;;3.10;75.60;;;;;;5036086;28;20303;-35
2021/11/24 07:17:18;;;;;;;34.45;16.80;;;3.10;75.80;;;;;;5034991;28;20116;-45
2021/11/24 07:19:44;;;;;;;54.47;23.42;;;3.10;76.00;;;;;;5045735;28;20314;-45
2021/11/24 07:22:10;;;;;;;37.97;18.20;;;3.10;76.30;;;;;;5055053;28;20024;-35
2021/11/24 07:24:36;;;;;;;31.85;17.27;;;3.10;76.40;;;;;;5055536;28;20037;-36
2021/11/24 07:27:01;;;;;;;35.22;17.55;;;3.20;76.70;;;;;;5054618;28;20033;-46
2021/11/24 07:29:27;;;;;;;35.80;17.60;;;3.20;76.80;;;;;;5055045;28;20116;-35
2021/11/24 07:31:53;;;;;;;40.10;20.02;;;3.30;76.90;;;;;;5054939;28;20424;-46
2021/11/24 07:34:19;;;;;;;34.90;18.48;;;3.40;76.90;;;;;;5055176;28;20029;-46
2021/11/24 07:36:45;;;;;;;46.03;25.23;;;3.40;76.90;;;;;;5055431;28;20116;-46
2021/11/24 07:39:11;;;;;;;35.67;19.38;;;3.50;76.80;;;;;;5059350;28;20589;-36
2021/11/24 07:41:37;;;;;;;31.05;17.35;;;3.50;76.70;;;;;;5059248;28;20379;-37
2021/11/24 07:44:03;;;;;;;31.70;17.25;;;3.60;76.40;;;;;;5059413;28;20068;-46
2021/11/24 07:46:29;;;;;;;30.33;17.25;;;3.70;76.30;;;;;;5059085;28;20050;-46
2021/11/24 07:48:56;;;;;;;28.75;16.58;;;3.70;75.80;;;;;;5059233;28;20372;-46
2021/11/24 07:51:22;;;;;;;33.78;18.70;;;3.70;75.50;;;;;;5058764;28;20021;-46
2021/11/24 07:53:47;;;;;;;39.42;23.17;;;3.70;75.60;;;;;;5058689;28;20032;-37
2021/11/24 07:56:13;;;;;;;43.38;21.02;;;3.70;75.40;;;;;;5058897;28;20048;-35
2021/11/24 07:58:42;;;;;;;39.10;21.08;;;3.70;75.50;;;;;;5058569;28;20032;-46
2021/11/24 08:01:12;;;;;;;44.38;23.60;;;3.70;75.20;;;;;;5058916;28;20048;-36
2021/11/24 08:03:39;;;;;;;44.58;22.05;;;3.60;74.90;;;;;;5058671;28;20032;-35
2021/11/24 08:06:05;;;;;;;43.63;22.50;;;3.60;75.00;;;;;;5059561;28;20037;-45
2021/11/24 08:08:30;;;;;;;46.92;25.25;;;3.60;75.20;;;;;;5058353;28;20063;-35
2021/11/24 08:10:56;;;;;;;38.97;19.75;;;3.50;75.30;;;;;;5059036;28;20036;-34
2021/11/24 08:13:22;;;;;;;41.33;22.65;;;3.50;75.40;;;;;;5058406;28;20099;-37
2021/11/24 08:15:48;;;;;;;39.17;19.88;;;3.50;75.80;;;;;;5059179;28;20041;-45
2021/11/24 08:18:14;;;;;;;35.20;18.58;;;3.60;76.10;;;;;;5058093;28;20056;-45
2021/11/24 08:20:41;;;;;;;35.20;18.95;;;3.60;76.20;;;;;;5058962;28;20402;-44
2021/11/24 08:23:07;;;;;;;41.45;20.60;;;3.70;76.10;;;;;;5058639;28;20031;-36
2021/11/24 08:25:33;;;;;;;37.13;19.75;;;3.70;75.90;;;;;;5059013;28;20100;-38
2021/11/24 08:27:58;;;;;;;36.13;19.98;;;3.80;76.10;;;;;;5058316;28;20075;-46
2021/11/24 08:30:24;;;;;;;32.53;17.85;;;3.80;76.00;;;;;;5058766;28;20037;-46
2021/11/24 08:32:51;;;;;;;32.33;16.38;;;3.90;75.90;;;;;;5058287;28;20025;-35
2021/11/24 08:35:18;;;;;;;34.55;17.80;;;3.90;75.90;;;;;;5058701;28;20033;-46
2021/11/24 08:37:44;;;;;;;33.08;17.30;;;3.90;75.60;;;;;;5058262;28;20028;-34
2021/11/24 08:40:11;;;;;;;32.47;16.27;;;4.00;75.30;;;;;;5058798;28;20029;-34
2021/11/24 08:42:37;;;;;;;34.20;17.13;;;4.00;75.30;;;;;;5058243;28;20314;-46
2021/11/24 08:45:04;;;;;;;38.53;18.58;;;4.10;75.30;;;;;;5058488;28;20429;-46
2021/11/24 08:47:30;;;;;;;36.58;19.38;;;4.10;74.90;;;;;;5058290;28;20024;-45
2021/11/24 08:49:56;;;;;;;37.50;19.83;;;4.20;74.80;;;;;;5058537;28;20029;-36
2021/11/24 08:52:22;;;;;;;41.00;20.92;;;4.20;74.70;;;;;;5058212;28;20029;-37
2021/11/24 08:54:48;;;;;;;38.17;21.27;;;4.20;74.50;;;;;;5057799;28;20057;-46
2021/11/24 08:57:13;;;;;;;37.63;20.45;;;4.20;74.40;;;;;;5057727;28;20032;-46
2021/11/24 08:59:39;;;;;;;41.95;21.10;;;4.20;74.70;;;;;;5057945;28;20035;-37
2021/11/24 09:02:06;;;;;;;42.83;21.45;;;4.30;75.00;;;;;;5056942;28;20048;-37
2021/11/24 09:04:32;;;;;;;52.40;26.20;;;4.40;74.90;;;;;;5058135;28;20302;-45
2021/11/24 09:06:58;;;;;;;44.65;24.10;;;4.40;74.60;;;;;;5057521;28;20044;-36
2021/11/24 09:09:24;;;;;;;48.03;24.02;;;4.50;74.50;;;;;;5057813;28;20033;-35
2021/11/24 09:11:50;;;;;;;47.33;23.05;;;4.50;74.40;;;;;;5054067;28;20035;-35
2021/11/24 09:14:15;;;;;;;45.97;25.77;;;4.60;74.30;;;;;;5057587;28;20078;-35
2021/11/24 09:16:41;;;;;;;48.13;25.98;;;4.60;74.60;;;;;;5057160;28;20108;-35
2021/11/24 09:19:07;;;;;;;45.17;23.45;;;4.60;74.10;;;;;;5057508;28;20029;-46
2021/11/24 09:21:32;;;;;;;49.88;24.58;;;4.70;74.20;;;;;;5057158;28;20029;-35
2021/11/24 09:24:04;;;;;;;41.97;22.60;;;4.70;74.10;;;;;;5057490;28;20021;-36
2021/11/24 09:29:05;;;;;;;51.00;25.27;;;4.80;74.50;;;;;;5057278;28;20040;-47
2021/11/24 09:31:30;;;;;;;49.03;24.17;;;4.80;74.60;;;;;;5056891;28;20063;-47
2021/11/24 09:33:58;;;;;;;52.15;25.80;;;4.90;74.70;;;;;;5057295;28;20076;-46
2021/11/24 09:36:25;;;;;;;52.40;26.33;;;5.00;74.60;;;;;;5057118;28;20055;-47
2021/11/24 09:38:51;;;;;;;47.40;24.15;;;5.00;74.60;;;;;;5057089;28;20033;-36
2021/11/24 09:41:21;;;;;;;45.55;21.05;;;5.10;75.00;;;;;;5056757;28;20317;-36
2021/11/24 09:43:51;;;;;;;45.70;23.23;;;5.20;74.50;;;;;;5057182;28;20021;-47
2021/11/24 09:46:19;;;;;;;39.88;20.35;;;5.20;74.50;;;;;;5056570;28;20263;-47
2021/11/24 09:48:48;;;;;;;45.35;21.33;;;5.30;74.60;;;;;;5056931;28;20041;-36
2021/11/24 09:51:15;;;;;;;41.65;20.50;;;5.30;74.40;;;;;;5056538;28;20033;-36
2021/11/24 09:53:44;;;;;;;39.13;20.20;;;5.40;74.30;;;;;;5056782;28;20051;-46
2021/11/24 09:56:10;;;;;;;42.08;20.13;;;5.40;74.30;;;;;;5056395;28;20048;-35
2021/11/24 09:58:36;;;;;;;36.42;18.67;;;5.40;74.30;;;;;;5056966;28;20095;-38
2021/11/24 10:01:02;;;;;;;40.00;20.08;;;5.40;74.30;;;;;;5056505;28;20309;-39
2021/11/24 10:03:28;;;;;;;41.90;21.42;;;5.50;74.20;;;;;;5056562;28;20410;-35
2021/11/24 10:05:54;;;;;;;38.50;20.35;;;5.50;74.10;;;;;;5057052;28;20071;-36
2021/11/24 10:08:21;;;;;;;47.60;21.77;;;5.50;74.20;;;;;;5056775;28;20314;-36
2021/11/24 10:10:46;;;;;;;39.10;19.77;;;5.50;74.20;;;;;;5057073;28;20044;-36
2021/11/24 10:13:14;;;;;;;40.55;19.83;;;5.50;74.20;;;;;;5056585;28;20036;-37
2021/11/24 10:15:48;;;;;;;41.28;20.25;;;5.60;74.20;;;;;;5057182;28;20479;-47
2021/11/24 10:18:31;;;;;;;37.70;18.95;;;5.60;74.30;;;;;;5056775;28;20025;-37
2021/11/24 10:21:06;;;;;;;39.53;20.38;;;5.60;74.00;;;;;;5057205;28;20415;-45
2021/11/24 10:23:37;;;;;;;40.30;19.42;;;5.60;74.10;;;;;;5056405;28;20036;-45
2021/11/24 10:26:21;;;;;;;42.28;19.85;;;5.60;73.90;;;;;;5056996;28;20041;-46
2021/11/24 10:28:58;;;;;;;33.60;18.20;;;5.60;73.80;;;;;;5056321;28;20033;-35
2021/11/24 10:31:46;;;;;;;39.05;20.60;;;5.60;74.00;;;;;;5056167;28;20107;-46
2021/11/24 10:34:18;;;;;;;39.70;20.67;;;5.60;73.80;;;;;;5055795;28;20045;-46
2021/11/24 10:37:05;;;;;;;39.83;20.65;;;5.60;74.00;;;;;;5055954;28;20021;-36
2021/11/24 10:39:56;;;;;;;37.53;20.20;;;5.50;74.10;;;;;;5056254;28;20048;-46
2021/11/24 10:42:25;;;;;;;37.75;20.17;;;5.60;74.30;;;;;;5055650;28;20421;-45
2021/11/24 10:44:54;;;;;;;40.85;20.40;;;5.50;74.40;;;;;;5056627;28;20041;-47
2021/11/24 10:47:21;;;;;;;37.75;19.63;;;5.60;74.60;;;;;;5055959;28;20031;-36
2021/11/24 10:49:59;;;;;;;37.80;20.23;;;5.50;74.60;;;;;;5056401;28;20036;-42
2021/11/24 10:52:31;;;;;;;36.63;19.08;;;5.60;74.60;;;;;;5056115;28;20413;-36
2021/11/24 10:55:11;;;;;;;36.70;19.48;;;5.60;74.60;;;;;;5055449;28;20064;-36
2021/11/24 10:57:40;;;;;;;44.88;22.10;;;5.70;74.60;;;;;;5055366;28;20029;-47
2021/11/24 11:00:16;;;;;;;39.47;20.15;;;5.70;74.60;;;;;;5055597;28;20037;-36
2021/11/24 11:02:46;;;;;;;38.58;20.85;;;5.70;74.40;;;;;;5055558;28;20075;-47
2021/11/24 11:05:14;;;;;;;38.83;20.35;;;5.70;74.50;;;;;;5055915;28;20431;-36
2021/11/24 11:07:49;;;;;;;39.10;19.98;;;5.80;74.40;;;;;;5055471;28;20159;-35
2021/11/24 11:10:19;;;;;;;40.83;19.90;;;5.80;74.60;;;;;;5056074;28;20107;-46
2021/11/24 11:12:52;;;;;;;36.45;19.30;;;5.80;74.40;;;;;;5054374;28;20035;-45
2021/11/24 11:15:37;;;;;;;39.45;19.92;;;5.80;74.50;;;;;;5056034;28;20120;-47
2021/11/24 11:18:25;;;;;;;39.25;20.17;;;5.80;74.50;;;;;;5055291;28;20437;-33
2021/11/24 11:20:54;;;;;;;36.40;18.98;;;5.90;74.60;;;;;;5055898;28;20032;-40
2021/11/24 11:23:24;;;;;;;37.70;19.40;;;5.90;74.50;;;;;;5055429;28;20017;-33
2021/11/24 11:25:54;;;;;;;34.37;18.33;;;5.90;74.10;;;;;;5055676;28;20021;-40
2021/11/24 11:28:22;;;;;;;35.95;18.75;;;5.90;74.10;;;;;;5055292;28;20020;-32
2021/11/24 11:30:50;;;;;;;35.92;18.38;;;5.90;73.80;;;;;;5056148;28;20103;-33
2021/11/24 11:33:19;;;;;;;34.30;16.85;;;5.90;73.70;;;;;;5055348;28;20056;-32
2021/11/24 11:35:47;;;;;;;35.40;18.90;;;5.90;73.60;;;;;;5055862;28;20370;-40
2021/11/24 11:38:15;;;;;;;37.83;19.45;;;5.80;73.70;;;;;;5055554;28;20029;-39
2021/11/24 11:40:43;;;;;;;34.92;18.27;;;5.80;74.00;;;;;;5052782;28;20033;-32
2021/11/24 11:43:09;;;;;;;31.52;18.25;;;5.80;74.10;;;;;;5054093;28;20029;-39
2021/11/24 11:45:38;;;;;;;33.10;18.15;;;5.70;74.30;;;;;;5055421;28;20033;-39
2021/11/24 11:48:07;;;;;;;43.20;26.92;;;5.70;74.30;;;;;;5054784;28;20112;-40
2021/11/24 11:50:52;;;;;;;29.77;16.30;;;5.70;74.10;;;;;;5055394;28;20116;-32
2021/11/24 11:53:25;;;;;;;34.15;18.33;;;5.60;74.10;;;;;;5054955;28;20325;-33
2021/11/24 11:56:09;;;;;;;37.88;20.05;;;5.60;74.40;;;;;;5054692;28;20063;-37
2021/11/24 11:58:55;;;;;;;29.25;15.48;;;5.60;74.40;;;;;;5054820;28;20069;-34
2021/11/24 12:01:29;;;;;;;28.90;16.80;;;5.50;74.40;;;;;;5054610;28;20033;-46
2021/11/24 12:04:47;;;;;;;31.33;16.25;;;5.50;74.60;;;;;;5054686;28;20021;-36
2021/11/24 12:07:20;;;;;;;29.70;16.88;;;5.50;74.80;;;;;;5052137;28;20025;-36
2021/11/24 12:10:00;;;;;;;28.92;17.20;;;5.50;75.00;;;;;;5052166;28;20040;-46
2021/11/24 12:12:31;;;;;;;30.27;16.30;;;5.40;75.20;;;;;;5053956;28;20045;-46
2021/11/24 12:15:28;;;;;;;30.42;16.40;;;5.40;75.00;;;;;;5054898;28;20063;-45
2021/11/24 12:18:07;;;;;;;32.97;17.42;;;5.40;75.10;;;;;;5054523;28;20064;-38
2021/11/24 12:20:39;;;;;;;32.63;18.55;;;5.40;75.40;;;;;;5055159;28;20025;-47
2021/11/24 12:23:11;;;;;;;30.25;17.10;;;5.40;75.70;;;;;;5054831;28;20032;-46
2021/11/24 12:25:37;;;;;;;31.13;15.55;;;5.40;75.80;;;;;;5058903;28;20025;-47
2021/11/24 12:28:09;;;;;;;31.98;16.73;;;5.40;76.00;;;;;;5058367;28;20340;-46
2021/11/24 12:30:35;;;;;;;29.50;16.77;;;5.50;75.90;;;;;;5058515;28;20033;-35
2021/11/24 12:33:06;;;;;;;32.05;16.65;;;5.50;75.90;;;;;;5058228;28;20183;-35
2021/11/24 12:35:35;;;;;;;;;;;5.50;75.90;;;;;;5059300;28;20025;-35
2021/11/24 12:38:03;;;;;;;33.15;16.60;;;5.50;75.70;;;;;;5058158;28;20382;-46
2021/11/24 12:40:37;;;;;;;27.13;14.68;;;5.50;75.80;;;;;;5058824;28;20040;-35
2021/11/24 12:43:15;;;;;;;28.85;16.25;;;5.50;75.90;;;;;;5058204;28;20025;-45
2021/11/24 12:45:42;;;;;;;28.63;17.40;;;5.60;76.10;;;;;;5058460;28;20033;-46